Cluj-Napoca, Romania
Current Conditions -  °F | °C
As of 9:00 AM on Saturday 25 Oct 2014 (Local Time) from LRCL Reporting Station
Broken Clouds Broken Clouds  
Wind Chill: 38°   Ceiling: 6800
Heat Index: 41°   Visibility: 6mi
Dew Point: 36°   Wind: 5mph
Humidity: 81%   Direction: 70°ENE
Pressure: 30.27"   Gusts: NA
Location:  46.78°N, 23.59°E
Report Text: LRCL 250600Z 07004KT 9999 FEW052 BKN068 05/02 Q1025
Loading
Personal Weather Stations






























Interactive Weather Map
Tropical Storm Tracking
New forecast layout! Learn more

10-Day Weather Forecast

Advertisements
Track Severe Weather on mobile